sensor_id;sensor_type;location;lat;lon;timestamp;pressure;altitude;pressure_sealevel;temperature;humidity
49689;BME280;70518;51.400;7.428;2023-06-19T00:00:36;160411.34;;;25.06;49.76
49689;BME280;70518;51.400;7.428;2023-06-19T00:03:02;160411.34;;;25.06;49.64
49689;BME280;70518;51.400;7.428;2023-06-19T00:05:27;160430.91;;;25.14;49.88
49689;BME280;70518;51.400;7.428;2023-06-19T00:07:53;160424.41;;;25.11;49.92
49689;BME280;70518;51.400;7.428;2023-06-19T00:10:18;160416.59;;;25.08;50.05
49689;BME280;70518;51.400;7.428;2023-06-19T00:12:44;160406.16;;;25.04;50.44
49689;BME280;70518;51.400;7.428;2023-06-19T00:15:10;160410.09;;;25.06;50.68
49689;BME280;70518;51.400;7.428;2023-06-19T00:17:36;160391.84;;;24.99;51.29
49689;BME280;70518;51.400;7.428;2023-06-19T00:20:03;160397.06;;;25.01;51.11
49689;BME280;70518;51.400;7.428;2023-06-19T00:22:29;160382.75;;;24.95;51.73
49689;BME280;70518;51.400;7.428;2023-06-19T00:24:54;160386.66;;;24.97;52.09
49689;BME280;70518;51.400;7.428;2023-06-19T00:27:20;160377.56;;;24.93;52.03
49689;BME280;70518;51.400;7.428;2023-06-19T00:29:45;160380.16;;;24.94;52.49
49689;BME280;70518;51.400;7.428;2023-06-19T00:32:10;160378.88;;;24.94;52.56
49689;BME280;70518;51.400;7.428;2023-06-19T00:34:35;160372.38;;;24.91;52.51
49689;BME280;70518;51.400;7.428;2023-06-19T00:37:02;160371.06;;;24.91;52.52
49689;BME280;70518;51.400;7.428;2023-06-19T00:39:28;160354.13;;;24.84;52.76
49689;BME280;70518;51.400;7.428;2023-06-19T00:41:54;160347.63;;;24.81;53.33
49689;BME280;70518;51.400;7.428;2023-06-19T00:44:20;160338.47;;;24.78;53.42
49689;BME280;70518;51.400;7.428;2023-06-19T00:46:45;160321.56;;;24.71;53.81
49689;BME280;70518;51.400;7.428;2023-06-19T00:49:12;160318.97;;;24.70;53.83
49689;BME280;70518;51.400;7.428;2023-06-19T00:51:38;160307.25;;;24.66;54.09
49689;BME280;70518;51.400;7.428;2023-06-19T00:54:04;160311.16;;;24.67;54.47
49689;BME280;70518;51.400;7.428;2023-06-19T00:56:31;160318.97;;;24.70;54.69
49689;BME280;70518;51.400;7.428;2023-06-19T00:58:57;160302.06;;;24.64;54.72
49689;BME280;70518;51.400;7.428;2023-06-19T01:01:22;160308.56;;;24.66;54.49
49689;BME280;70518;51.400;7.428;2023-06-19T01:03:49;160292.94;;;24.60;55.31
49689;BME280;70518;51.400;7.428;2023-06-19T01:06:17;160283.81;;;24.57;55.70
49689;BME280;70518;51.400;7.428;2023-06-19T01:09:08;160263.03;;;24.49;55.89
49689;BME280;70518;51.400;7.428;2023-06-19T01:11:46;160261.72;;;24.48;56.26
49689;BME280;70518;51.400;7.428;2023-06-19T01:14:21;160277.34;;;24.54;56.50
49689;BME280;70518;51.400;7.428;2023-06-19T01:16:50;160277.34;;;24.54;56.52
49689;BME280;70518;51.400;7.428;2023-06-19T01:19:18;160269.53;;;24.51;56.50
49689;BME280;70518;51.400;7.428;2023-06-19T01:21:45;160260.41;;;24.48;56.69
49689;BME280;70518;51.400;7.428;2023-06-19T01:24:12;160243.50;;;24.41;56.58
49689;BME280;70518;51.400;7.428;2023-06-19T01:26:37;160233.13;;;24.37;57.11
49689;BME280;70518;51.400;7.428;2023-06-19T01:29:03;160229.19;;;24.36;57.73
49689;BME280;70518;51.400;7.428;2023-06-19T01:31:42;160226.63;;;24.35;58.52
49689;BME280;70518;51.400;7.428;2023-06-19T01:34:12;160222.69;;;24.33;58.64
49689;BME280;70518;51.400;7.428;2023-06-19T01:36:39;160226.63;;;24.35;58.46
49689;BME280;70518;51.400;7.428;2023-06-19T01:39:06;160230.50;;;24.36;58.31
49689;BME280;70518;51.400;7.428;2023-06-19T01:41:33;160234.44;;;24.38;58.09
49689;BME280;70518;51.400;7.428;2023-06-19T01:43:59;160227.88;;;24.35;58.20
49689;BME280;70518;51.400;7.428;2023-06-19T01:46:25;160209.72;;;24.28;58.36
49689;BME280;70518;51.400;7.428;2023-06-19T01:48:50;160191.47;;;24.21;58.73
49689;BME280;70518;51.400;7.428;2023-06-19T01:51:16;160207.09;;;24.27;58.59
49689;BME280;70518;51.400;7.428;2023-06-19T01:53:42;160185.00;;;24.18;58.98
49689;BME280;70518;51.400;7.428;2023-06-19T01:56:07;160186.28;;;24.19;59.18
49689;BME280;70518;51.400;7.428;2023-06-19T01:58:32;160168.06;;;24.12;59.56
49689;BME280;70518;51.400;7.428;2023-06-19T02:00:58;160166.75;;;24.11;59.65
49689;BME280;70518;51.400;7.428;2023-06-19T02:03:23;160172.00;;;24.13;59.70
49689;BME280;70518;51.400;7.428;2023-06-19T02:05:48;160164.19;;;24.10;59.59
49689;BME280;70518;51.400;7.428;2023-06-19T02:08:14;160172.00;;;24.13;60.31
49689;BME280;70518;51.400;7.428;2023-06-19T02:10:39;160161.53;;;24.09;60.57
49689;BME280;70518;51.400;7.428;2023-06-19T02:13:04;160143.34;;;24.02;60.32
49689;BME280;70518;51.400;7.428;2023-06-19T02:15:29;160147.22;;;24.04;60.28
49689;BME280;70518;51.400;7.428;2023-06-19T02:17:56;160155.03;;;24.07;60.38
49689;BME280;70518;51.400;7.428;2023-06-19T02:20:22;160155.03;;;24.07;60.76
49689;BME280;70518;51.400;7.428;2023-06-19T02:22:49;160153.72;;;24.06;60.51
49689;BME280;70518;51.400;7.428;2023-06-19T02:25:15;160130.31;;;23.97;61.03
49689;BME280;70518;51.400;7.428;2023-06-19T02:27:41;160118.63;;;23.93;60.77
49689;BME280;70518;51.400;7.428;2023-06-19T02:30:07;160080.94;;;23.78;61.79
49689;BME280;70518;51.400;7.428;2023-06-19T02:32:33;160065.31;;;23.72;62.01
49689;BME280;70518;51.400;7.428;2023-06-19T02:34:58;160070.50;;;23.74;62.08
49689;BME280;70518;51.400;7.428;2023-06-19T02:37:23;160054.91;;;23.68;62.95
49689;BME280;70518;51.400;7.428;2023-06-19T02:39:49;160054.91;;;23.68;63.37
49689;BME280;70518;51.400;7.428;2023-06-19T02:42:14;160071.81;;;23.74;62.56
49689;BME280;70518;51.400;7.428;2023-06-19T02:44:40;160088.72;;;23.81;61.11
49689;BME280;70518;51.400;7.428;2023-06-19T02:47:05;160082.19;;;23.78;58.93
49689;BME280;70518;51.400;7.428;2023-06-19T02:49:31;160092.59;;;23.83;58.56
49689;BME280;70518;51.400;7.428;2023-06-19T02:51:56;160108.22;;;23.89;56.99
49689;BME280;70518;51.400;7.428;2023-06-19T02:54:22;160121.19;;;23.94;56.18
49689;BME280;70518;51.400;7.428;2023-06-19T02:56:47;160127.75;;;23.96;55.66
49689;BME280;70518;51.400;7.428;2023-06-19T02:59:13;160138.13;;;24.00;55.10
49689;BME280;70518;51.400;7.428;2023-06-19T03:01:38;160136.81;;;24.00;54.32
49689;BME280;70518;51.400;7.428;2023-06-19T03:04:03;160149.84;;;24.05;53.80
49689;BME280;70518;51.400;7.428;2023-06-19T03:06:29;160157.66;;;24.08;52.78
49689;BME280;70518;51.400;7.428;2023-06-19T03:08:54;160153.72;;;24.06;52.96
49689;BME280;70518;51.400;7.428;2023-06-19T03:11:19;160145.91;;;24.03;52.33
49689;BME280;70518;51.400;7.428;2023-06-19T03:13:51;160158.91;;;24.08;52.31
49689;BME280;70518;51.400;7.428;2023-06-19T03:16:16;160157.66;;;24.08;52.42
49689;BME280;70518;51.400;7.428;2023-06-19T03:18:42;160160.22;;;24.09;52.24
49689;BME280;70518;51.400;7.428;2023-06-19T03:21:10;160162.84;;;24.10;52.21
49689;BME280;70518;51.400;7.428;2023-06-19T03:23:35;160183.69;;;24.18;52.08
49689;BME280;70518;51.400;7.428;2023-06-19T03:26:01;160162.84;;;24.10;52.27
49689;BME280;70518;51.400;7.428;2023-06-19T03:28:26;160168.06;;;24.12;52.60
49689;BME280;70518;51.400;7.428;2023-06-19T03:30:51;160174.56;;;24.14;52.62
49689;BME280;70518;51.400;7.428;2023-06-19T03:33:17;160187.59;;;24.19;52.57
49689;BME280;70518;51.400;7.428;2023-06-19T03:35:43;160186.28;;;24.19;52.98
49689;BME280;70518;51.400;7.428;2023-06-19T03:38:08;160173.31;;;24.14;53.30
49689;BME280;70518;51.400;7.428;2023-06-19T03:40:33;160174.56;;;24.14;53.45
49689;BME280;70518;51.400;7.428;2023-06-19T03:42:59;160174.56;;;24.14;53.25
49689;BME280;70518;51.400;7.428;2023-06-19T03:45:24;160166.75;;;24.11;53.97
49689;BME280;70518;51.400;7.428;2023-06-19T03:47:49;160161.53;;;24.09;54.07
49689;BME280;70518;51.400;7.428;2023-06-19T03:50:14;160168.06;;;24.12;54.47
49689;BME280;70518;51.400;7.428;2023-06-19T03:52:40;160160.22;;;24.09;54.86
49689;BME280;70518;51.400;7.428;2023-06-19T03:55:05;160170.69;;;24.13;55.11
49689;BME280;70518;51.400;7.428;2023-06-19T03:57:31;160158.91;;;24.08;55.56
49689;BME280;70518;51.400;7.428;2023-06-19T03:59:56;160140.72;;;24.01;55.64
49689;BME280;70518;51.400;7.428;2023-06-19T04:02:21;160151.09;;;24.05;55.64
49689;BME280;70518;51.400;7.428;2023-06-19T04:04:47;160147.22;;;24.04;55.67
49689;BME280;70518;51.400;7.428;2023-06-19T04:07:12;160151.09;;;24.05;55.83
49689;BME280;70518;51.400;7.428;2023-06-19T04:09:38;160139.44;;;24.01;56.28
49689;BME280;70518;51.400;7.428;2023-06-19T04:12:04;160142.03;;;24.02;56.29
49689;BME280;70518;51.400;7.428;2023-06-19T04:14:29;160130.31;;;23.97;56.70
49689;BME280;70518;51.400;7.428;2023-06-19T04:16:54;160110.81;;;23.90;57.76
49689;BME280;70518;51.400;7.428;2023-06-19T04:19:20;160110.81;;;23.90;57.87
49689;BME280;70518;51.400;7.428;2023-06-19T04:21:45;160100.41;;;23.86;58.01
49689;BME280;70518;51.400;7.428;2023-06-19T04:24:10;160079.63;;;23.77;58.44
49689;BME280;70518;51.400;7.428;2023-06-19T04:26:35;160077.00;;;23.76;59.13
49689;BME280;70518;51.400;7.428;2023-06-19T04:29:02;160065.31;;;23.72;59.64
49689;BME280;70518;51.400;7.428;2023-06-19T04:31:27;160071.81;;;23.74;59.56
49689;BME280;70518;51.400;7.428;2023-06-19T04:33:53;160070.50;;;23.74;60.14
49689;BME280;70518;51.400;7.428;2023-06-19T04:36:21;160065.31;;;23.72;60.51
49689;BME280;70518;51.400;7.428;2023-06-19T04:38:46;160064.00;;;23.71;60.77
49689;BME280;70518;51.400;7.428;2023-06-19T04:41:11;160040.59;;;23.62;61.22
49689;BME280;70518;51.400;7.428;2023-06-19T04:43:37;160039.31;;;23.62;61.21
49689;BME280;70518;51.400;7.428;2023-06-19T04:46:02;160047.09;;;23.65;61.68
49689;BME280;70518;51.400;7.428;2023-06-19T04:48:29;160065.31;;;23.72;61.63
49689;BME280;70518;51.400;7.428;2023-06-19T04:50:54;160053.59;;;23.67;61.88
49689;BME280;70518;51.400;7.428;2023-06-19T04:53:21;160045.78;;;23.64;62.45
49689;BME280;70518;51.400;7.428;2023-06-19T04:55:46;160039.31;;;23.62;62.88
49689;BME280;70518;51.400;7.428;2023-06-19T04:58:11;160034.13;;;23.60;63.12
49689;BME280;70518;51.400;7.428;2023-06-19T05:00:36;160025.00;;;23.56;63.48
49689;BME280;70518;51.400;7.428;2023-06-19T05:03:02;160034.13;;;23.60;63.70
49689;BME280;70518;51.400;7.428;2023-06-19T05:05:28;160036.69;;;23.61;63.45
49689;BME280;70518;51.400;7.428;2023-06-19T05:07:53;160053.59;;;23.67;63.03
49689;BME280;70518;51.400;7.428;2023-06-19T05:10:19;160061.41;;;23.70;63.34
49689;BME280;70518;51.400;7.428;2023-06-19T05:12:44;160069.19;;;23.73;63.35
49689;BME280;70518;51.400;7.428;2023-06-19T05:15:10;160066.63;;;23.72;63.31
49689;BME280;70518;51.400;7.428;2023-06-19T05:17:36;160064.00;;;23.71;63.41
49689;BME280;70518;51.400;7.428;2023-06-19T05:20:04;160038.00;;;23.61;64.29
49689;BME280;70518;51.400;7.428;2023-06-19T05:22:32;160008.09;;;23.50;65.46
49689;BME280;70518;51.400;7.428;2023-06-19T05:24:59;159984.69;;;23.41;66.43
49689;BME280;70518;51.400;7.428;2023-06-19T05:27:24;159956.06;;;23.30;67.24
49689;BME280;70518;51.400;7.428;2023-06-19T05:29:49;159914.44;;;23.13;68.56
49689;BME280;70518;51.400;7.428;2023-06-19T05:32:15;159891.03;;;23.04;68.96
49689;BME280;70518;51.400;7.428;2023-06-19T05:34:40;159831.28;;;22.81;70.29
49689;BME280;70518;51.400;7.428;2023-06-19T05:37:05;159813.13;;;22.74;70.43
49689;BME280;70518;51.400;7.428;2023-06-19T05:39:30;159802.69;;;22.70;70.93
49689;BME280;70518;51.400;7.428;2023-06-19T05:41:56;159798.81;;;22.68;71.26
49689;BME280;70518;51.400;7.428;2023-06-19T05:44:21;159805.31;;;22.71;71.45
49689;BME280;70518;51.400;7.428;2023-06-19T05:46:47;159805.31;;;22.71;70.78
49689;BME280;70518;51.400;7.428;2023-06-19T05:49:12;159801.38;;;22.69;71.35
49689;BME280;70518;51.400;7.428;2023-06-19T05:51:37;159801.38;;;22.69;71.55
49689;BME280;70518;51.400;7.428;2023-06-19T05:54:03;159801.38;;;22.69;71.19
49689;BME280;70518;51.400;7.428;2023-06-19T05:56:32;159802.69;;;22.70;71.36
49689;BME280;70518;51.400;7.428;2023-06-19T05:58:58;159798.81;;;22.68;71.71
49689;BME280;70518;51.400;7.428;2023-06-19T06:01:23;159823.47;;;22.78;71.26
49689;BME280;70518;51.400;7.428;2023-06-19T06:03:49;159837.75;;;22.84;71.00
49689;BME280;70518;51.400;7.428;2023-06-19T06:06:14;159831.28;;;22.81;71.66
49689;BME280;70518;51.400;7.428;2023-06-19T06:08:40;159833.88;;;22.82;71.40
49689;BME280;70518;51.400;7.428;2023-06-19T06:11:05;159828.72;;;22.80;71.52
49689;BME280;70518;51.400;7.428;2023-06-19T06:13:30;159813.13;;;22.74;71.45
49689;BME280;70518;51.400;7.428;2023-06-19T06:15:55;159800.09;;;22.69;71.74
49689;BME280;70518;51.400;7.428;2023-06-19T06:18:21;159793.59;;;22.66;71.46
49689;BME280;70518;51.400;7.428;2023-06-19T06:20:47;159813.13;;;22.74;70.82
49689;BME280;70518;51.400;7.428;2023-06-19T06:23:12;159828.72;;;22.80;70.99
49689;BME280;70518;51.400;7.428;2023-06-19T06:25:38;159845.56;;;22.87;70.87
49689;BME280;70518;51.400;7.428;2023-06-19T06:28:03;159859.91;;;22.92;70.13
49689;BME280;70518;51.400;7.428;2023-06-19T06:30:28;159889.78;;;23.04;70.34
49689;BME280;70518;51.400;7.428;2023-06-19T06:32:54;159913.19;;;23.13;69.81
49689;BME280;70518;51.400;7.428;2023-06-19T06:35:19;159940.47;;;23.23;69.49
49689;BME280;70518;51.400;7.428;2023-06-19T06:37:44;159939.16;;;23.23;69.76
49689;BME280;70518;51.400;7.428;2023-06-19T06:40:11;159924.84;;;23.17;69.16
49689;BME280;70518;51.400;7.428;2023-06-19T06:42:38;159904.06;;;23.09;67.05
49689;BME280;70518;51.400;7.428;2023-06-19T06:45:06;159919.69;;;23.15;66.79
49689;BME280;70518;51.400;7.428;2023-06-19T06:47:32;159913.19;;;23.13;67.18
49689;BME280;70518;51.400;7.428;2023-06-19T06:49:57;159928.78;;;23.19;66.84
49689;BME280;70518;51.400;7.428;2023-06-19T06:52:23;159917.06;;;23.14;67.88
49689;BME280;70518;51.400;7.428;2023-06-19T06:54:49;159897.59;;;23.07;68.19
49689;BME280;70518;51.400;7.428;2023-06-19T06:57:14;159892.34;;;23.05;67.95
49689;BME280;70518;51.400;7.428;2023-06-19T06:59:39;159900.16;;;23.08;68.16
49689;BME280;70518;51.400;7.428;2023-06-19T07:02:05;159922.25;;;23.16;67.87
49689;BME280;70518;51.400;7.428;2023-06-19T07:04:30;159913.19;;;23.13;68.21
49689;BME280;70518;51.400;7.428;2023-06-19T07:06:56;159913.19;;;23.13;68.22
49689;BME280;70518;51.400;7.428;2023-06-19T07:09:23;159866.41;;;22.95;68.45
49689;BME280;70518;51.400;7.428;2023-06-19T07:11:49;159878.06;;;22.99;68.32
49689;BME280;70518;51.400;7.428;2023-06-19T07:14:15;159918.38;;;23.15;67.99
49689;BME280;70518;51.400;7.428;2023-06-19T07:16:43;159937.84;;;23.22;67.44
49689;BME280;70518;51.400;7.428;2023-06-19T07:19:08;159956.06;;;23.30;66.59
49689;BME280;70518;51.400;7.428;2023-06-19T07:21:33;159911.88;;;23.12;67.61
49689;BME280;70518;51.400;7.428;2023-06-19T07:23:59;159905.38;;;23.10;67.44
49689;BME280;70518;51.400;7.428;2023-06-19T07:26:24;159902.78;;;23.09;68.00
49689;BME280;70518;51.400;7.428;2023-06-19T07:28:50;159909.25;;;23.11;68.97
49689;BME280;70518;51.400;7.428;2023-06-19T07:31:15;159910.56;;;23.12;68.50
49689;BME280;70518;51.400;7.428;2023-06-19T07:33:40;159898.84;;;23.07;68.89
49689;BME280;70518;51.400;7.428;2023-06-19T07:36:05;159883.25;;;23.01;69.54
49689;BME280;70518;51.400;7.428;2023-06-19T07:38:31;159926.16;;;23.18;69.24
49689;BME280;70518;51.400;7.428;2023-06-19T07:40:56;159930.03;;;23.19;69.25
49689;BME280;70518;51.400;7.428;2023-06-19T07:43:22;159915.75;;;23.14;69.08
49689;BME280;70518;51.400;7.428;2023-06-19T07:45:48;159907.94;;;23.11;69.56
49689;BME280;70518;51.400;7.428;2023-06-19T07:48:13;159944.38;;;23.25;69.03
49689;BME280;70518;51.400;7.428;2023-06-19T07:50:39;159935.28;;;23.21;69.29
49689;BME280;70518;51.400;7.428;2023-06-19T07:53:04;159944.38;;;23.25;69.26
49689;BME280;70518;51.400;7.428;2023-06-19T07:55:30;159936.59;;;23.22;68.94
49689;BME280;70518;51.400;7.428;2023-06-19T07:57:55;159952.13;;;23.28;68.94
49689;BME280;70518;51.400;7.428;2023-06-19T08:00:25;159959.94;;;23.31;67.66
49689;BME280;70518;51.400;7.428;2023-06-19T08:02:50;159953.44;;;23.29;68.24
49689;BME280;70518;51.400;7.428;2023-06-19T08:05:15;159970.34;;;23.35;67.39
49689;BME280;70518;51.400;7.428;2023-06-19T08:07:41;160001.59;;;23.47;67.51
49689;BME280;70518;51.400;7.428;2023-06-19T08:10:07;160002.91;;;23.48;67.00
49689;BME280;70518;51.400;7.428;2023-06-19T08:12:32;159997.72;;;23.46;67.88
49689;BME280;70518;51.400;7.428;2023-06-19T08:14:58;159992.50;;;23.44;68.18
49689;BME280;70518;51.400;7.428;2023-06-19T08:17:23;160001.59;;;23.47;67.15
49689;BME280;70518;51.400;7.428;2023-06-19T08:19:49;160004.22;;;23.48;67.54
49689;BME280;70518;51.400;7.428;2023-06-19T08:22:15;159993.81;;;23.44;67.85
49689;BME280;70518;51.400;7.428;2023-06-19T08:24:40;160028.88;;;23.58;66.54
49689;BME280;70518;51.400;7.428;2023-06-19T08:27:06;160019.81;;;23.54;67.36
49689;BME280;70518;51.400;7.428;2023-06-19T08:29:32;160013.28;;;23.52;66.45
49689;BME280;70518;51.400;7.428;2023-06-19T08:31:57;159995.13;;;23.45;67.22
49689;BME280;70518;51.400;7.428;2023-06-19T08:34:22;159988.63;;;23.42;68.05
49689;BME280;70518;51.400;7.428;2023-06-19T08:36:48;159983.38;;;23.40;67.21
49689;BME280;70518;51.400;7.428;2023-06-19T08:39:13;160005.53;;;23.49;66.80
49689;BME280;70518;51.400;7.428;2023-06-19T08:41:38;160002.91;;;23.48;67.29
49689;BME280;70518;51.400;7.428;2023-06-19T08:44:05;159996.41;;;23.45;67.70
49689;BME280;70518;51.400;7.428;2023-06-19T08:46:30;160013.28;;;23.52;67.26
49689;BME280;70518;51.400;7.428;2023-06-19T08:48:56;160005.53;;;23.49;67.52
49689;BME280;70518;51.400;7.428;2023-06-19T08:51:22;160013.28;;;23.52;67.49
49689;BME280;70518;51.400;7.428;2023-06-19T08:53:55;159978.16;;;23.38;68.11
49689;BME280;70518;51.400;7.428;2023-06-19T08:56:21;159984.69;;;23.41;68.39
49689;BME280;70518;51.400;7.428;2023-06-19T08:58:46;159993.81;;;23.44;68.25
49689;BME280;70518;51.400;7.428;2023-06-19T09:01:16;160032.81;;;23.59;67.40
49689;BME280;70518;51.400;7.428;2023-06-19T09:03:42;160032.81;;;23.59;68.30
49689;BME280;70518;51.400;7.428;2023-06-19T09:06:08;160038.00;;;23.61;68.00
49689;BME280;70518;51.400;7.428;2023-06-19T09:08:33;160057.53;;;23.69;68.09
49689;BME280;70518;51.400;7.428;2023-06-19T09:11:02;160069.19;;;23.73;68.74
49689;BME280;70518;51.400;7.428;2023-06-19T09:13:29;160093.91;;;23.83;69.03
49689;BME280;70518;51.400;7.428;2023-06-19T09:18:41;160148.53;;;24.04;68.14
49689;BME280;70518;51.400;7.428;2023-06-19T09:21:18;160168.06;;;24.12;67.04
49689;BME280;70518;51.400;7.428;2023-06-19T09:23:47;160213.59;;;24.29;67.24
49689;BME280;70518;51.400;7.428;2023-06-19T09:26:15;160220.06;;;24.32;66.07
49689;BME280;70518;51.400;7.428;2023-06-19T09:28:41;160225.31;;;24.34;66.14
49689;BME280;70518;51.400;7.428;2023-06-19T09:31:07;160277.34;;;24.54;64.90
49689;BME280;70518;51.400;7.428;2023-06-19T09:33:34;160278.63;;;24.55;64.60
49689;BME280;70518;51.400;7.428;2023-06-19T09:36:01;160305.94;;;24.65;62.85
49689;BME280;70518;51.400;7.428;2023-06-19T09:38:29;160317.66;;;24.70;63.38
49689;BME280;70518;51.400;7.428;2023-06-19T09:40:56;160360.63;;;24.86;61.62
49689;BME280;70518;51.400;7.428;2023-06-19T09:43:33;160389.25;;;24.98;62.00
49689;BME280;70518;51.400;7.428;2023-06-19T09:46:00;160382.75;;;24.95;61.25
49689;BME280;70518;51.400;7.428;2023-06-19T09:48:29;160381.44;;;24.95;60.79
49689;BME280;70518;51.400;7.428;2023-06-19T09:51:18;160385.38;;;24.96;60.12
49689;BME280;70518;51.400;7.428;2023-06-19T09:53:45;160378.88;;;24.94;59.84
49689;BME280;70518;51.400;7.428;2023-06-19T09:56:12;160380.16;;;24.94;58.96
49689;BME280;70518;51.400;7.428;2023-06-19T09:58:37;160393.16;;;24.99;59.46
49689;BME280;70518;51.400;7.428;2023-06-19T10:01:04;160411.34;;;25.06;59.04
49689;BME280;70518;51.400;7.428;2023-06-19T10:03:31;160417.91;;;25.09;57.63
49689;BME280;70518;51.400;7.428;2023-06-19T10:05:58;160420.47;;;25.10;58.22
49689;BME280;70518;51.400;7.428;2023-06-19T10:08:30;160442.59;;;25.18;58.38
49689;BME280;70518;51.400;7.428;2023-06-19T10:10:55;160508.97;;;25.44;56.47
49689;BME280;70518;51.400;7.428;2023-06-19T10:13:31;160507.69;;;25.43;57.08
49689;BME280;70518;51.400;7.428;2023-06-19T10:15:56;160507.69;;;25.43;56.92
49689;BME280;70518;51.400;7.428;2023-06-19T10:18:22;160537.66;;;25.55;56.78
49689;BME280;70518;51.400;7.428;2023-06-19T10:20:50;160598.81;;;25.79;56.81
49689;BME280;70518;51.400;7.428;2023-06-19T10:23:20;160670.44;;;26.07;54.76
49689;BME280;70518;51.400;7.428;2023-06-19T10:25:47;160719.94;;;26.26;54.18
49689;BME280;70518;51.400;7.428;2023-06-19T10:28:21;160791.56;;;26.54;53.04
49689;BME280;70518;51.400;7.428;2023-06-19T10:31:02;160760.31;;;26.41;53.06
49689;BME280;70518;51.400;7.428;2023-06-19T10:33:33;160751.19;;;26.38;51.33
49689;BME280;70518;51.400;7.428;2023-06-19T10:35:59;160735.56;;;26.32;52.21
49689;BME280;70518;51.400;7.428;2023-06-19T10:38:27;160721.22;;;26.26;52.99
49689;BME280;70518;51.400;7.428;2023-06-19T10:40:53;160729.06;;;26.29;53.56
49689;BME280;70518;51.400;7.428;2023-06-19T10:43:24;160800.69;;;26.57;52.66
49689;BME280;70518;51.400;7.428;2023-06-19T10:45:53;160834.50;;;26.70;51.68
49689;BME280;70518;51.400;7.428;2023-06-19T10:48:25;160830.63;;;26.69;50.46
49689;BME280;70518;51.400;7.428;2023-06-19T10:50:50;160809.81;;;26.61;50.74
49689;BME280;70518;51.400;7.428;2023-06-19T10:53:32;160800.69;;;26.57;50.42
49689;BME280;70518;51.400;7.428;2023-06-19T10:56:02;160822.81;;;26.66;50.67
49689;BME280;70518;51.400;7.428;2023-06-19T10:58:28;160859.31;;;26.80;50.39
49689;BME280;70518;51.400;7.428;2023-06-19T11:00:53;160842.31;;;26.73;50.24
49689;BME280;70518;51.400;7.428;2023-06-19T11:03:20;160869.75;;;26.84;49.80
49689;BME280;70518;51.400;7.428;2023-06-19T11:05:46;160914.03;;;27.01;49.79
49689;BME280;70518;51.400;7.428;2023-06-19T11:08:17;160925.72;;;27.05;48.82
49689;BME280;70518;51.400;7.428;2023-06-19T11:10:43;160936.16;;;27.10;48.68
49689;BME280;70518;51.400;7.428;2023-06-19T11:13:13;160975.22;;;27.25;47.64
49689;BME280;70518;51.400;7.428;2023-06-19T11:15:39;160980.44;;;27.27;47.82
49689;BME280;70518;51.400;7.428;2023-06-19T11:18:05;161016.88;;;27.41;47.22
49689;BME280;70518;51.400;7.428;2023-06-19T11:20:30;161072.97;;;27.63;46.67
49689;BME280;70518;51.400;7.428;2023-06-19T11:22:57;161045.63;;;27.52;46.46
49689;BME280;70518;51.400;7.428;2023-06-19T11:25:23;161048.22;;;27.53;45.75
49689;BME280;70518;51.400;7.428;2023-06-19T11:27:49;161031.31;;;27.46;45.44
49689;BME280;70518;51.400;7.428;2023-06-19T11:30:18;161053.47;;;27.55;45.72
49689;BME280;70518;51.400;7.428;2023-06-19T11:32:43;161074.28;;;27.63;45.86
49689;BME280;70518;51.400;7.428;2023-06-19T11:35:11;161097.75;;;27.72;45.12
49689;BME280;70518;51.400;7.428;2023-06-19T11:37:40;161071.66;;;27.62;44.86
49689;BME280;70518;51.400;7.428;2023-06-19T11:40:06;161108.19;;;27.76;45.42
49689;BME280;70518;51.400;7.428;2023-06-19T11:42:51;161135.53;;;27.87;45.49
49689;BME280;70518;51.400;7.428;2023-06-19T11:45:16;161174.63;;;28.02;45.27
49689;BME280;70518;51.400;7.428;2023-06-19T11:47:44;161189.00;;;28.07;45.02
49689;BME280;70518;51.400;7.428;2023-06-19T11:50:10;161181.19;;;28.04;44.21
49689;BME280;70518;51.400;7.428;2023-06-19T11:52:35;161194.19;;;28.09;43.53
49689;BME280;70518;51.400;7.428;2023-06-19T11:55:01;161225.47;;;28.22;43.01
49689;BME280;70518;51.400;7.428;2023-06-19T11:57:26;161268.50;;;28.38;42.50
49689;BME280;70518;51.400;7.428;2023-06-19T11:59:52;161318.00;;;28.57;42.62
49689;BME280;70518;51.400;7.428;2023-06-19T12:02:17;161346.72;;;28.68;42.64
49689;BME280;70518;51.400;7.428;2023-06-19T12:04:42;161379.31;;;28.81;41.88
49689;BME280;70518;51.400;7.428;2023-06-19T12:07:08;161419.75;;;28.97;41.91
49689;BME280;70518;51.400;7.428;2023-06-19T12:09:34;161424.94;;;28.99;42.61
49689;BME280;70518;51.400;7.428;2023-06-19T12:11:59;161418.44;;;28.96;42.57
49689;BME280;70518;51.400;7.428;2023-06-19T12:14:25;161404.09;;;28.91;41.16
49689;BME280;70518;51.400;7.428;2023-06-19T12:16:51;161460.19;;;29.12;40.88
49689;BME280;70518;51.400;7.428;2023-06-19T12:19:17;161484.91;;;29.22;40.37
49689;BME280;70518;51.400;7.428;2023-06-19T12:21:42;161487.59;;;29.23;40.18
49689;BME280;70518;51.400;7.428;2023-06-19T12:24:08;161511.06;;;29.32;39.57
49689;BME280;70518;51.400;7.428;2023-06-19T12:26:35;161547.56;;;29.46;38.99
49689;BME280;70518;51.400;7.428;2023-06-19T12:29:06;161551.50;;;29.48;39.12
49689;BME280;70518;51.400;7.428;2023-06-19T12:31:32;161576.28;;;29.57;39.21
49689;BME280;70518;51.400;7.428;2023-06-19T12:33:58;161561.91;;;29.52;39.23
49689;BME280;70518;51.400;7.428;2023-06-19T12:36:24;161603.66;;;29.68;39.37
49689;BME280;70518;51.400;7.428;2023-06-19T12:38:49;161595.84;;;29.65;38.94
49689;BME280;70518;51.400;7.428;2023-06-19T12:41:15;161625.81;;;29.76;39.24
49689;BME280;70518;51.400;7.428;2023-06-19T12:43:40;161621.94;;;29.75;39.33
49689;BME280;70518;51.400;7.428;2023-06-19T12:46:05;161640.22;;;29.82;39.41
49689;BME280;70518;51.400;7.428;2023-06-19T12:48:32;161672.84;;;29.95;38.72